Time;durP1;ratioP1;P1;durP2;ratioP2;P2;SDS_P1;SDS_P2;PMS_P1;PMS_P2;Temp;Humidity;BMP_temperature;BMP_pressure;BME280_temperature;BME280_humidity;BME280_pressure;Samples;Min_cycle;Max_cycle;Signal;HPM_P1;HPM_P2
2022/11/23 00:01:55;;;;;;;;;;;;;;;-144.99;100.00;52582.63;5067678;28;20028;-66
2022/11/23 00:04:23;;;;;;;;;;;;;;;-144.99;100.00;52586.69;5061551;28;19948;-66
2022/11/23 00:06:51;;;;;;;;;;;;;;;-144.99;100.00;52541.84;5059016;28;20010;-73
2022/11/23 00:09:18;;;;;;;;;;;;;;;-144.99;100.00;52564.28;5054949;28;19949;-73
2022/11/23 00:11:45;;;;;;;;;;;;;;;-144.99;100.00;52582.63;5071075;28;19960;-72
2022/11/23 00:14:11;;;;;;;;;;;;;;;-144.99;100.00;52580.59;5053493;28;20392;-72
2022/11/23 00:16:38;;;;;;;;;;;;;;;-144.99;100.00;52550.00;5063434;28;20039;-73
2022/11/23 00:19:04;;;;;;;;;;;;;;;-144.99;100.00;52580.59;5057410;28;19924;-73
2022/11/23 00:21:31;;;;;;;;;;;;;;;-144.99;100.00;52517.41;5064033;28;20099;-71
2022/11/23 00:23:59;;;;;;;;;;;;;;;-144.99;100.00;52558.16;5083023;28;20407;-71
2022/11/23 00:26:26;;;;;;;;;;;;;;;-144.99;100.00;52523.50;5072241;28;20017;-71
2022/11/23 00:28:52;;;;;;;;;;;;;;;-144.99;100.00;52578.53;5070222;28;20009;-71
2022/11/23 00:31:20;;;;;;;;;;;;;;;-144.99;100.00;52562.25;5057654;28;19925;-71
2022/11/23 00:33:49;;;;;;;;;;;;;;;-144.99;100.00;52554.09;5063492;28;20415;-71
2022/11/23 00:36:16;;;;;;;;;;;;;;;-144.99;100.00;52582.63;5050209;28;19971;-71
2022/11/23 00:38:43;;;;;;;;;;;;;;;-144.99;100.00;52552.03;5060623;28;20363;-72
2022/11/23 00:41:12;;;;;;;;;;;;;;;-144.99;100.00;52519.44;5063640;28;20012;-71
2022/11/23 00:43:39;;;;;;;;;;;;;;;-144.99;100.00;52519.44;5058685;28;20039;-72
2022/11/23 00:46:06;;;;;;;;;;;;;;;-144.99;100.00;52586.69;5057219;28;20374;-72
2022/11/23 00:48:32;;;;;;;;;;;;;;;-144.99;100.00;52574.47;5070213;28;20040;-71
2022/11/23 00:50:59;;;;;;;;;;;;;;;-144.99;100.00;52574.47;5055040;28;19959;-74
2022/11/23 00:53:26;;;;;;;;;;;;;;;-144.99;100.00;52525.56;5060793;28;20426;-70
2022/11/23 00:55:52;;;;;;;;;;;;;;;-144.99;100.00;52605.03;5069608;28;19954;-69
2022/11/23 00:58:20;;;;;;;;;;;;;;;-144.99;100.00;52566.31;5060165;28;20434;-69
2022/11/23 01:00:47;;;;;;;;;;;;;;;-144.99;100.00;52580.59;5063064;28;19965;-69
2022/11/23 01:03:14;;;;;;;;;;;;;;;-144.99;100.00;52525.56;5058349;28;19987;-69
2022/11/23 01:05:41;;;;;;;;;;;;;;;-144.99;100.00;52566.31;5059844;28;19959;-70
2022/11/23 01:08:08;;;;;;;;;;;;;;;-144.99;100.00;52554.09;5054554;28;20352;-69
2022/11/23 01:10:34;;;;;;;;;;;;;;;-144.99;100.00;52554.09;5063428;28;20042;-68
2022/11/23 01:13:01;;;;;;;;;;;;;;;-144.99;100.00;52572.44;5057362;28;19988;-68
2022/11/23 01:15:29;;;;;;;;;;;;;;;-144.99;100.00;52545.94;5070421;28;19993;-76
2022/11/23 01:17:55;;;;;;;;;;;;;;;-144.99;100.00;52543.91;5070494;28;19996;-75
2022/11/23 01:20:22;;;;;;;;;;;;;;;-144.99;100.00;52529.63;5056566;28;19987;-74
2022/11/23 01:22:51;;;;;;;;;;;;;;;-144.99;100.00;52570.38;5059890;28;19943;-75
2022/11/23 01:25:17;;;;;;;;;;;;;;;-144.99;100.00;52562.25;5054633;28;20465;-74
2022/11/23 01:27:44;;;;;;;;;;;;;;;-144.99;100.00;52521.47;5060233;28;19945;-74
2022/11/23 01:30:11;;;;;;;;;;;;;;;-144.99;100.00;52529.63;5052715;28;20276;-70
2022/11/23 01:32:39;;;;;;;;;;;;;;;-144.99;100.00;52570.38;5048934;28;19963;-69
2022/11/23 01:35:06;;;;;;;;;;;;;;;-144.99;100.00;52505.16;5049368;28;19990;-68
2022/11/23 01:37:32;;;;;;;;;;;;;;;-144.99;100.00;52552.03;5051912;28;20032;-70
2022/11/23 01:39:59;;;;;;;;;;;;;;;-144.99;100.00;52586.69;5063050;28;20354;-67
2022/11/23 01:42:39;;;;;;;;;;;;;;;-144.99;100.00;52533.69;5060336;28;20415;-69
2022/11/23 01:45:31;;;;;;;;;;;;;;;-144.99;100.00;52558.16;5050727;28;20024;-71
2022/11/23 01:48:00;;;;;;;;;;;;;;;-144.99;100.00;52586.69;5068205;28;19929;-70
2022/11/23 01:50:26;;;;;;;;;;;;;;;-144.99;100.00;52566.31;5064386;28;20080;-69
2022/11/23 01:52:53;;;;;;;;;;;;;;;-144.99;100.00;52566.31;5065326;28;20334;-68
2022/11/23 01:55:19;;;;;;;;;;;;;;;-144.99;100.00;52541.84;5058964;28;19956;-70
2022/11/23 01:57:46;;;;;;;;;;;;;;;-144.99;100.00;52537.78;5062250;28;20317;-70
2022/11/23 02:00:13;;;;;;;;;;;;;;;-144.99;100.00;52545.94;5054750;28;19924;-72
2022/11/23 02:02:42;;;;;;;;;;;;;;;-144.99;100.00;52552.03;5070204;28;19924;-71
2022/11/23 02:05:11;;;;;;;;;;;;;;;-144.99;100.00;52592.81;5068692;28;20371;-71
2022/11/23 02:07:39;;;;;;;;;;;;;;;-144.99;100.00;52582.63;5055720;28;20250;-72
2022/11/23 02:10:06;;;;;;;;;;;;;;;-144.99;100.00;52550.00;5058109;28;20177;-71
2022/11/23 02:12:32;;;;;;;;;;;;;;;-144.99;100.00;52574.47;5048883;28;19998;-71
2022/11/23 02:14:59;;;;;;;;;;;;;;;-144.99;100.00;52562.25;5049330;28;20031;-73
2022/11/23 02:17:25;;;;;;;;;;;;;;;-144.99;100.00;52523.50;5049335;28;20356;-72
2022/11/23 02:19:57;;;;;;;;;;;;;;;-144.99;100.00;52554.09;5048787;28;20000;-72
2022/11/23 02:22:29;;;;;;;;;;;;;;;-144.99;100.00;52564.28;5051947;28;19977;-73
2022/11/23 02:24:56;;;;;;;;;;;;;;;-144.99;100.00;52598.94;5071733;28;19947;-72
2022/11/23 02:27:24;;;;;;;;;;;;;;;-144.99;100.00;52554.09;5066323;28;19939;-72
2022/11/23 02:29:52;;;;;;;;;;;;;;;-144.99;100.00;52558.16;5053566;28;19944;-72
2022/11/23 02:32:21;;;;;;;;;;;;;;;-144.99;100.00;52547.97;5068215;28;20496;-69
2022/11/23 02:34:48;;;;;;;;;;;;;;;-144.99;100.00;52562.25;5078511;28;19943;-69
2022/11/23 02:37:15;;;;;;;;;;;;;;;-144.99;100.00;52578.53;5060945;28;20374;-71
2022/11/23 02:39:44;;;;;;;;;;;;;;;-144.99;100.00;52558.16;5058653;28;19943;-70
2022/11/23 02:42:11;;;;;;;;;;;;;;;-144.99;100.00;52558.16;5053683;28;20497;-71
2022/11/23 02:44:41;;;;;;;;;;;;;;;-144.99;100.00;52558.16;5056011;28;20453;-71
2022/11/23 02:47:09;;;;;;;;;;;;;;;-144.99;100.00;52558.16;5062727;28;19963;-71
2022/11/23 02:49:35;;;;;;;;;;;;;;;-144.99;100.00;52558.16;5052990;28;19943;-70
2022/11/23 02:52:02;;;;;;;;;;;;;;;-144.99;100.00;52570.38;5062940;28;19956;-70
2022/11/23 02:54:28;;;;;;;;;;;;;;;-144.99;100.00;52558.16;5072895;28;19994;-70
2022/11/23 02:56:55;;;;;;;;;;;;;;;-144.99;100.00;52603.00;5073030;28;20373;-68
2022/11/23 02:59:21;;;;;;;;;;;;;;;-144.99;100.00;52578.53;5072315;28;20350;-69
2022/11/23 03:01:49;;;;;;;;;;;;;;;-144.99;100.00;52578.53;5071648;28;19955;-69
2022/11/23 03:04:16;;;;;;;;;;;;;;;-144.99;100.00;52525.56;5063182;28;20366;-70
2022/11/23 03:06:43;;;;;;;;;;;;;;;-144.99;100.00;52547.97;5052855;28;19924;-69
2022/11/23 03:09:09;;;;;;;;;;;;;;;-144.99;100.00;52533.69;5052716;28;20355;-69
2022/11/23 03:11:36;;;;;;;;;;;;;;;-144.99;100.00;52533.69;5053128;28;19951;-68
2022/11/23 03:14:03;;;;;;;;;;;;;;;-144.99;100.00;52578.53;5065573;28;20405;-68
2022/11/23 03:16:30;;;;;;;;;;;;;;;-144.99;100.00;52576.50;5070431;28;19947;-70
2022/11/23 03:18:58;;;;;;;;;;;;;;;-144.99;100.00;52541.84;5060516;28;19929;-71
2022/11/23 03:21:24;;;;;;;;;;;;;;;-144.99;100.00;52537.78;5052325;28;20042;-70
2022/11/23 03:23:51;;;;;;;;;;;;;;;-144.99;100.00;52492.94;5051976;28;20219;-69
2022/11/23 03:26:17;;;;;;;;;;;;;;;-144.99;100.00;52533.69;5052232;28;19929;-68
2022/11/23 03:28:44;;;;;;;;;;;;;;;-144.99;100.00;52558.16;5051278;28;20005;-68
2022/11/23 03:31:10;;;;;;;;;;;;;;;-144.99;100.00;52492.94;5051693;28;19925;-70
2022/11/23 03:33:37;;;;;;;;;;;;;;;-144.99;100.00;52594.84;5057193;28;20320;-71
2022/11/23 03:36:05;;;;;;;;;;;;;;;-144.99;100.00;52537.78;5058835;28;19950;-70
2022/11/23 03:38:32;;;;;;;;;;;;;;;-144.99;100.00;52566.31;5062373;28;19941;-71
2022/11/23 03:40:58;;;;;;;;;;;;;;;-144.99;100.00;52545.94;5052700;28;19965;-71
2022/11/23 03:43:25;;;;;;;;;;;;;;;-144.99;100.00;52525.56;5080940;28;20368;-71
2022/11/23 03:45:51;;;;;;;;;;;;;;;-144.99;100.00;52570.38;5058898;28;20493;-71
2022/11/23 03:48:18;;;;;;;;;;;;;;;-144.99;100.00;52580.59;5063938;28;19949;-72
2022/11/23 03:50:44;;;;;;;;;;;;;;;-144.99;100.00;52550.00;5052703;28;20006;-71
2022/11/23 03:53:13;;;;;;;;;;;;;;;-144.99;100.00;52541.84;5059320;28;20044;-69
2022/11/23 03:55:39;;;;;;;;;;;;;;;-144.99;100.00;52558.16;5052999;28;20007;-69
2022/11/23 03:58:06;;;;;;;;;;;;;;;-144.99;100.00;52505.16;5061366;28;19979;-69
2022/11/23 04:00:32;;;;;;;;;;;;;;;-144.99;100.00;52545.94;5070903;28;19973;-70
2022/11/23 04:02:59;;;;;;;;;;;;;;;-144.99;100.00;52543.91;5073047;28;19939;-69
2022/11/23 04:05:26;;;;;;;;;;;;;;;-144.99;100.00;52560.19;5059255;28;19942;-71
2022/11/23 04:07:53;;;;;;;;;;;;;;;-144.99;100.00;52562.25;5052032;28;19953;-68
2022/11/23 04:10:21;;;;;;;;;;;;;;;-144.99;100.00;52550.00;5051840;28;20342;-68
2022/11/23 04:12:50;;;;;;;;;;;;;;;-144.99;100.00;52566.31;5051905;28;19966;-68
2022/11/23 04:42:44;;;;;;;;;;;;;;;-144.99;100.00;52513.31;5049249;28;20072;-72
2022/11/23 04:45:11;;;;;;;;;;;;;;;-144.99;100.00;52590.78;5064145;28;20000;-71
2022/11/23 04:47:38;;;;;;;;;;;;;;;-144.99;100.00;52517.41;5057118;28;20346;-66
2022/11/23 04:50:05;;;;;;;;;;;;;;;-144.99;100.00;52541.84;5061127;28;19940;-70
2022/11/23 04:52:32;;;;;;;;;;;;;;;-144.99;100.00;52550.00;5069883;28;20456;-70
2022/11/23 04:54:58;;;;;;;;;;;;;;;-144.99;100.00;52558.16;5064279;28;20300;-70
2022/11/23 04:57:25;;;;;;;;;;;;;;;-144.99;100.00;52550.00;5070307;28;20019;-70
2022/11/23 04:59:53;;;;;;;;;;;;;;;-144.99;100.00;52570.38;5065166;28;19935;-71
2022/11/23 05:02:19;;;;;;;;;;;;;;;-144.99;100.00;52592.81;5073672;28;19935;-71
2022/11/23 05:04:46;;;;;;;;;;;;;;;-144.99;100.00;52564.28;5077128;28;19935;-71
2022/11/23 05:07:12;;;;;;;;;;;;;;;-144.99;100.00;52570.38;5057461;28;19964;-70
2022/11/23 05:09:39;;;;;;;;;;;;;;;-144.99;100.00;52550.00;5061474;28;19944;-70
2022/11/23 05:12:06;;;;;;;;;;;;;;;-144.99;100.00;52537.78;5064356;28;19959;-67
2022/11/23 05:23:43;;;;;;;;;;;;;;;-144.99;100.00;52533.69;5051269;28;20016;-68
2022/11/23 05:26:09;;;;;;;;;;;;;;;-144.99;100.00;52545.94;5065273;28;19978;-68
2022/11/23 05:28:36;;;;;;;;;;;;;;;-144.99;100.00;52570.38;5050163;28;19939;-71
2022/11/23 05:31:03;;;;;;;;;;;;;;;-144.99;100.00;52558.16;5061074;28;20381;-69
2022/11/23 05:33:29;;;;;;;;;;;;;;;-144.99;100.00;52541.84;5060349;28;20001;-68
2022/11/23 05:35:56;;;;;;;;;;;;;;;-144.99;100.00;52570.38;5062345;28;19939;-69
2022/11/23 05:38:22;;;;;;;;;;;;;;;-144.99;100.00;52545.94;5064116;28;20008;-70
2022/11/23 05:40:50;;;;;;;;;;;;;;;-144.99;100.00;52527.59;5065093;28;19955;-70
2022/11/23 05:43:17;;;;;;;;;;;;;;;-144.99;100.00;52550.00;5054494;28;19941;-71
2022/11/23 05:45:43;;;;;;;;;;;;;;;-144.99;100.00;52550.00;5064010;28;19928;-70
2022/11/23 05:48:10;;;;;;;;;;;;;;;-144.99;100.00;52529.63;5068983;28;19939;-70
2022/11/23 05:50:36;;;;;;;;;;;;;;;-144.99;100.00;52525.56;5055931;28;19941;-69
2022/11/23 05:53:03;;;;;;;;;;;;;;;-144.99;100.00;52505.16;5062170;28;19979;-71
2022/11/23 05:55:30;;;;;;;;;;;;;;;-144.99;100.00;52505.16;5059077;28;19959;-76
2022/11/23 05:57:58;;;;;;;;;;;;;;;-144.99;100.00;52558.16;5076243;28;19944;-77
2022/11/23 06:00:24;;;;;;;;;;;;;;;-144.99;100.00;52529.63;5083250;28;19946;-77
2022/11/23 06:02:51;;;;;;;;;;;;;;;-144.99;100.00;52586.69;5080902;28;19935;-76
2022/11/23 06:05:18;;;;;;;;;;;;;;;-144.99;100.00;52517.41;5085418;28;19989;-76
2022/11/23 06:07:44;;;;;;;;;;;;;;;-144.99;100.00;52554.09;5085060;28;19954;-73
2022/11/23 06:10:11;;;;;;;;;;;;;;;-144.99;100.00;52529.63;5075230;28;20350;-74
2022/11/23 06:12:38;;;;;;;;;;;;;;;-144.99;100.00;52539.81;5080779;28;19964;-76
2022/11/23 06:15:07;;;;;;;;;;;;;;;-144.99;100.00;52511.28;5077063;28;20554;-75
2022/11/23 06:17:33;;;;;;;;;;;;;;;-144.99;100.00;52537.78;5075097;28;19936;-74
2022/11/23 06:20:00;;;;;;;;;;;;;;;-144.99;100.00;52580.59;4729229;28;10000486;-74
2022/11/23 06:22:26;;;;;;;;;;;;;;;-144.99;100.00;52545.94;5079946;28;19958;-73
2022/11/23 06:24:53;;;;;;;;;;;;;;;-144.99;100.00;52562.25;5076596;28;20004;-74
2022/11/23 06:27:20;;;;;;;;;;;;;;;-144.99;100.00;52550.00;5065956;28;19928;-76
2022/11/23 06:29:46;;;;;;;;;;;;;;;-144.99;100.00;52525.56;5080539;28;20172;-77
2022/11/23 06:32:15;;;;;;;;;;;;;;;-144.99;100.00;52545.94;5082007;28;19992;-76
2022/11/23 06:34:42;;;;;;;;;;;;;;;-144.99;100.00;52554.09;5080495;28;19965;-75
2022/11/23 06:37:08;;;;;;;;;;;;;;;-144.99;100.00;52533.69;5093719;28;20001;-77
2022/11/23 06:39:35;;;;;;;;;;;;;;;-144.99;100.00;52572.44;5076872;28;20009;-76
2022/11/23 06:42:02;;;;;;;;;;;;;;;-144.99;100.00;52566.31;5074109;28;19959;-76
2022/11/23 06:44:29;;;;;;;;;;;;;;;-144.99;100.00;52523.50;5076618;28;19983;-75
2022/11/23 06:46:55;;;;;;;;;;;;;;;-144.99;100.00;52539.81;5075341;28;19954;-74
2022/11/23 06:49:24;;;;;;;;;;;;;;;-144.99;100.00;52537.78;5078297;28;19943;-75
2022/11/23 06:51:51;;;;;;;;;;;;;;;-144.99;100.00;52545.94;5074514;28;19928;-75
2022/11/23 06:54:18;;;;;;;;;;;;;;;-144.99;100.00;52550.00;5068340;28;19952;-75
2022/11/23 06:56:45;;;;;;;;;;;;;;;-144.99;100.00;52554.09;5081061;28;19970;-76
2022/11/23 06:59:12;;;;;;;;;;;;;;;-144.99;100.00;52533.69;5076776;28;19957;-77
2022/11/23 07:01:38;;;;;;;;;;;;;;;-144.99;100.00;52554.09;5087313;28;19955;-75
2022/11/23 07:04:05;;;;;;;;;;;;;;;-144.99;100.00;52560.19;5081466;28;19988;-79
2022/11/23 07:06:33;;;;;;;;;;;;;;;-144.99;100.00;52513.31;5082811;28;19973;-77
2022/11/23 07:09:01;;;;;;;;;;;;;;;-144.99;100.00;52523.50;5074874;28;19945;-79
2022/11/23 07:11:28;;;;;;;;;;;;;;;-144.99;100.00;52525.56;5081188;28;19964;-77
2022/11/23 07:13:54;;;;;;;;;;;;;;;-144.99;100.00;52545.94;5071243;28;19951;-76
2022/11/23 07:16:21;;;;;;;;;;;;;;;-144.99;100.00;52525.56;5080500;28;19925;-77
2022/11/23 07:18:48;;;;;;;;;;;;;;;-144.99;100.00;52541.84;5085810;28;19947;-76
2022/11/23 07:21:14;;;;;;;;;;;;;;;-144.99;100.00;52568.34;5083878;28;20418;-76
2022/11/23 07:23:42;;;;;;;;;;;;;;;-144.99;100.00;52554.09;5076629;28;19943;-77
2022/11/23 07:26:09;;;;;;;;;;;;;;;-144.99;100.00;52543.91;5085565;28;19935;-76
2022/11/23 07:28:35;;;;;;;;;;;;;;;-144.99;100.00;52570.38;5077607;28;20052;-77
2022/11/23 07:31:02;;;;;;;;;;;;;;;-144.99;100.00;52556.13;5089191;28;19972;-78
2022/11/23 07:33:29;;;;;;;;;;;;;;;-144.99;100.00;52521.47;5070909;28;19924;-75
2022/11/23 07:35:55;;;;;;;;;;;;;;;-144.99;100.00;52537.78;5070426;28;20294;-75
2022/11/23 07:38:22;;;;;;;;;;;;;;;-144.99;100.00;52501.09;5082008;28;19945;-76
2022/11/23 07:40:51;;;;;;;;;;;;;;;-144.99;100.00;52525.56;5084083;28;19982;-76
2022/11/23 07:43:17;;;;;;;;;;;;;;;-144.99;100.00;52545.94;5079379;28;19948;-76
2022/11/23 07:45:44;;;;;;;;;;;;;;;-144.99;100.00;52547.97;5085409;28;19952;-80
2022/11/23 07:48:11;;;;;;;;;;;;;;;-144.99;100.00;52541.84;5083535;28;19948;-76
2022/11/23 07:50:38;;;;;;;;;;;;;;;-144.99;100.00;52507.19;5085713;28;19996;-76
2022/11/23 07:53:06;;;;;;;;;;;;;;;-144.99;100.00;52541.84;5085128;28;19956;-76
2022/11/23 07:55:32;;;;;;;;;;;;;;;-144.99;100.00;52513.31;5073094;28;19969;-76
2022/11/23 07:58:00;;;;;;;;;;;;;;;-144.99;100.00;52541.84;5085793;28;19975;-78
2022/11/23 08:00:28;;;;;;;;;;;;;;;-144.99;100.00;52558.16;5077793;28;19925;-75
2022/11/23 08:02:54;;;;;;;;;;;;;;;-144.99;100.00;52509.25;4725890;28;9999716;-75
2022/11/23 08:05:21;;;;;;;;;;;;;;;-144.99;100.00;52543.91;5082153;28;20002;-75
2022/11/23 08:07:48;;;;;;;;;;;;;;;-144.99;100.00;52550.00;5083276;28;20014;-75
2022/11/23 08:10:17;;;;;;;;;;;;;;;-144.99;100.00;52501.09;5081662;28;19960;-76
2022/11/23 08:12:43;;;;;;;;;;;;;;;-144.99;100.00;52550.00;5080634;28;19933;-75
2022/11/23 08:15:11;;;;;;;;;;;;;;;-144.99;100.00;52529.63;5089364;28;19995;-76
2022/11/23 08:17:38;;;;;;;;;;;;;;;-144.99;100.00;52503.13;5083211;28;19942;-76
2022/11/23 08:20:05;;;;;;;;;;;;;;;-144.99;100.00;52521.47;5069988;28;19950;-75
2022/11/23 08:22:31;;;;;;;;;;;;;;;-144.99;100.00;52505.16;5083348;28;19952;-75
2022/11/23 08:24:58;;;;;;;;;;;;;;;-144.99;100.00;52539.81;5064067;28;19943;-75
2022/11/23 08:27:27;;;;;;;;;;;;;;;-144.99;100.00;52541.84;5067701;28;20242;-75
2022/11/23 08:29:53;;;;;;;;;;;;;;;-144.99;100.00;52513.31;5055393;28;19979;-75
2022/11/23 08:32:21;;;;;;;;;;;;;;;-144.99;100.00;52525.56;5062382;28;19959;-75
2022/11/23 08:34:48;;;;;;;;;;;;;;;-144.99;100.00;52578.53;5054567;28;19948;-75
2022/11/23 08:37:14;;;;;;;;;;;;;;;-144.99;100.00;52537.78;5051948;28;20009;-76
2022/11/23 08:39:41;;;;;;;;;;;;;;;-144.99;100.00;52533.69;5061761;28;20123;-75
2022/11/23 08:42:08;;;;;;;;;;;;;;;-144.99;100.00;52517.41;5057449;28;20008;-75
2022/11/23 08:44:34;;;;;;;;;;;;;;;-144.99;100.00;52550.00;5064003;28;19995;-75
2022/11/23 08:47:03;;;;;;;;;;;;;;;-144.99;100.00;52497.00;5067784;28;19962;-74
2022/11/23 08:49:31;;;;;;;;;;;;;;;-144.99;100.00;52513.31;5050848;28;19935;-75
2022/11/23 08:51:58;;;;;;;;;;;;;;;-144.99;100.00;52505.16;5065135;28;19994;-74
2022/11/23 08:54:25;;;;;;;;;;;;;;;-144.99;100.00;52492.94;5055817;28;19962;-74
2022/11/23 08:56:52;;;;;;;;;;;;;;;-144.99;100.00;52509.25;5057983;28;19958;-75
2022/11/23 08:59:19;;;;;;;;;;;;;;;-144.99;100.00;52521.47;5064372;28;19944;-74
2022/11/23 09:01:45;;;;;;;;;;;;;;;-144.99;100.00;52537.78;5067811;28;19957;-75
2022/11/23 09:04:12;;;;;;;;;;;;;;;-144.99;100.00;52511.28;5060469;28;19939;-75
2022/11/23 09:06:40;;;;;;;;;;;;;;;-144.99;100.00;52525.56;5058482;28;19947;-74
2022/11/23 09:09:07;;;;;;;;;;;;;;;-144.99;100.00;52521.47;5059224;28;20173;-74
2022/11/23 09:11:33;;;;;;;;;;;;;;;-144.99;100.00;52521.47;5070910;28;19961;-74
2022/11/23 09:14:00;;;;;;;;;;;;;;;-144.99;100.00;52501.09;5066634;28;20130;-75
2022/11/23 09:16:27;;;;;;;;;;;;;;;-144.99;100.00;52533.69;5051519;28;19952;-75
2022/11/23 09:18:55;;;;;;;;;;;;;;;-144.99;100.00;52515.34;5063811;28;19929;-75
2022/11/23 09:21:21;;;;;;;;;;;;;;;-144.99;100.00;52509.25;5062764;28;20445;-75
2022/11/23 09:23:49;;;;;;;;;;;;;;;-144.99;100.00;52521.47;5064463;28;19950;-75
2022/11/23 09:26:16;;;;;;;;;;;;;;;-144.99;100.00;52503.13;5067658;28;19946;-74
2022/11/23 09:28:43;;;;;;;;;;;;;;;-144.99;100.00;52501.09;5050417;28;19951;-75
2022/11/23 09:31:09;;;;;;;;;;;;;;;-144.99;100.00;52488.84;5061213;28;20048;-74
2022/11/23 09:33:36;;;;;;;;;;;;;;;-144.99;100.00;52464.41;5062347;28;19988;-75
2022/11/23 09:36:04;;;;;;;;;;;;;;;-144.99;100.00;52444.03;5055819;28;20053;-75
2022/11/23 09:38:32;;;;;;;;;;;;;;;-144.99;100.00;52464.41;5058059;28;20065;-75
2022/11/23 09:41:07;;;;;;;;;;;;;;;-144.99;100.00;52494.97;5061714;28;19955;-75
2022/11/23 09:43:39;;;;;;;;;;;;;;;-144.99;98.63;52472.56;5048141;28;20540;-75
2022/11/23 09:46:11;;;;;;;;;;;;;;;-144.99;97.76;52507.19;5054489;28;19945;-75
2022/11/23 09:48:44;;;;;;;;;;;;;;;-144.99;99.74;52501.09;5058265;28;19963;-74
2022/11/23 09:51:14;;;;;;;;;;;;;;;-144.99;100.00;52525.56;5056367;28;19966;-75
2022/11/23 09:53:45;;;;;;;;;;;;;;;-144.99;100.00;52482.75;5067533;28;19964;-74
2022/11/23 09:56:16;;;;;;;;;;;;;;;-144.99;100.00;52525.56;5061163;28;19955;-75
2022/11/23 09:58:43;;;;;;;;;;;;;;;-144.99;100.00;52529.63;5058878;28;19987;-75
2022/11/23 10:01:12;;;;;;;;;;;;;;;-144.99;100.00;52472.56;5056853;28;20000;-74
2022/11/23 10:03:39;;;;;;;;;;;;;;;-144.99;100.00;52490.91;5054019;28;19937;-74
2022/11/23 10:06:12;;;;;;;;;;;;;;;-144.99;100.00;52484.78;5048949;28;20054;-74
2022/11/23 10:08:44;;;;;;;;;;;;;;;-144.99;100.00;52464.41;5046556;28;20052;-75
2022/11/23 10:11:31;;;;;;;;;;;;;;;-144.99;100.00;52494.97;5051169;28;20051;-75
2022/11/23 10:14:05;;;;;;;;;;;;;;;-144.99;94.56;52435.88;5060346;28;19939;-74
2022/11/23 10:16:38;;;;;;;;;;;;;;;-144.99;95.19;52505.16;5047770;28;20271;-74
2022/11/23 10:19:12;;;;;;;;;;;;;;;-144.99;95.63;52472.56;5058206;28;19982;-74
2022/11/23 10:21:43;;;;;;;;;;;;;;;-144.99;97.71;52486.81;5054199;28;19966;-75
2022/11/23 10:24:18;;;;;;;;;;;;;;;-144.99;99.83;52492.94;5048628;28;19945;-73
2022/11/23 10:26:48;;;;;;;;;;;;;;;-144.99;100.00;52474.59;5048230;28;19935;-74
2022/11/23 10:29:16;;;;;;;;;;;;;;;-144.99;98.86;52513.31;5050292;28;19959;-74
2022/11/23 10:31:45;;;;;;;;;;;;;;;-144.99;100.00;52456.25;5066403;28;19959;-75
2022/11/23 10:34:13;;;;;;;;;;;;;;;-144.99;100.00;52488.84;5061604;28;20385;-74
2022/11/23 10:36:41;;;;;;;;;;;;;;;-144.99;100.00;52492.94;5079211;28;19928;-74
2022/11/23 10:39:15;;;;;;;;;;;;;;;-144.99;100.00;52527.59;5088696;28;19943;-75
2022/11/23 10:41:42;;;;;;;;;;;;;;;-144.99;100.00;52497.00;5084351;28;20097;-74
2022/11/23 10:44:16;;;;;;;;;;;;;;;-144.99;100.00;52476.63;5075562;28;20032;-75
2022/11/23 10:46:42;;;;;;;;;;;;;;;-144.99;100.00;52529.63;5090115;28;19928;-74
2022/11/23 10:49:17;;;;;;;;;;;;;;;-144.99;100.00;52525.56;5084826;28;19991;-75
2022/11/23 10:51:51;;;;;;;;;;;;;;;-144.99;100.00;52497.00;5085166;28;19928;-73
2022/11/23 10:54:19;;;;;;;;;;;;;;;-144.99;100.00;52488.84;5093880;28;19948;-74
2022/11/23 10:56:46;;;;;;;;;;;;;;;-144.99;100.00;52521.47;5094036;28;19940;-75
2022/11/23 10:59:25;;;;;;;;;;;;;;;-144.99;100.00;52521.47;5086352;28;19949;-76
2022/11/23 11:01:59;;;;;;;;;;;;;;;-144.99;100.00;52492.94;5087590;28;20060;-74
2022/11/23 11:04:26;;;;;;;;;;;;;;;-144.99;100.00;52513.31;5084237;28;19936;-75
2022/11/23 11:06:52;;;;;;;;;;;;;;;-144.99;100.00;52488.84;5087263;28;19991;-76
2022/11/23 11:09:20;;;;;;;;;;;;;;;-144.99;100.00;52505.16;5080839;28;19969;-76
2022/11/23 11:11:47;;;;;;;;;;;;;;;-144.99;100.00;52509.25;5074960;28;19965;-74
2022/11/23 11:14:15;;;;;;;;;;;;;;;-144.99;100.00;52456.25;4729099;28;10000054;-76
2022/11/23 11:16:49;;;;;;;;;;;;;;;-144.99;100.00;52501.09;5086384;28;19946;-76
2022/11/23 11:19:26;;;;;;;;;;;;;;;-144.99;100.00;52541.84;5072725;28;20159;-74
2022/11/23 11:21:52;;;;;;;;;;;;;;;-144.99;100.00;52501.09;5066024;28;20383;-74
2022/11/23 11:24:22;;;;;;;;;;;;;;;-144.99;100.00;52501.09;5061441;28;19947;-74
2022/11/23 11:26:49;;;;;;;;;;;;;;;-144.99;100.00;52513.31;5068172;28;20366;-76
2022/11/23 11:29:29;;;;;;;;;;;;;;;-144.99;100.00;52554.09;5061725;28;20075;-75
2022/11/23 11:31:59;;;;;;;;;;;;;;;-144.99;100.00;52468.47;5070369;28;20213;-75
2022/11/23 11:34:28;;;;;;;;;;;;;;;-144.99;100.00;52521.47;5072604;28;19945;-77
2022/11/23 11:36:57;;;;;;;;;;;;;;;-144.99;100.00;52541.84;5059884;28;20390;-77
2022/11/23 11:39:31;;;;;;;;;;;;;;;-144.99;100.00;52494.97;5061182;28;20296;-72
2022/11/23 11:42:01;;;;;;;;;;;;;;;-144.99;100.00;52497.00;5067481;28;20056;-77
2022/11/23 11:44:28;;;;;;;;;;;;;;;-144.99;100.00;52482.75;5067842;28;19948;-75
2022/11/23 11:47:00;;;;;;;;;;;;;;;-144.99;100.00;52537.78;5059299;28;20450;-74
2022/11/23 11:49:30;;;;;;;;;;;;;;;-144.99;100.00;52488.84;5056389;28;20353;-73
2022/11/23 11:52:02;;;;;;;;;;;;;;;-144.99;100.00;52468.47;5069116;28;19967;-74
2022/11/23 11:54:32;;;;;;;;;;;;;;;-144.99;100.00;52554.09;5068564;28;20054;-74
2022/11/23 11:57:02;;;;;;;;;;;;;;;-144.99;100.00;52513.31;5068437;28;20432;-74
2022/11/23 11:59:30;;;;;;;;;;;;;;;-144.99;100.00;52509.25;5064959;28;19936;-75
2022/11/23 12:02:01;;;;;;;;;;;;;;;-144.99;100.00;52478.66;5056174;28;20422;-76
2022/11/23 12:04:30;;;;;;;;;;;;;;;-144.99;100.00;52513.31;5059023;28;19942;-74
2022/11/23 12:07:03;;;;;;;;;;;;;;;-144.99;100.00;52476.63;5065084;28;20388;-74
2022/11/23 12:09:31;;;;;;;;;;;;;;;-144.99;100.00;52499.06;5065605;28;19952;-76
2022/11/23 12:11:58;;;;;;;;;;;;;;;-144.99;100.00;52505.16;5055169;28;19963;-75
2022/11/23 12:14:25;;;;;;;;;;;;;;;-144.99;100.00;52501.09;5067876;28;19943;-75
2022/11/23 12:16:58;;;;;;;;;;;;;;;-144.99;100.00;52531.66;5068713;28;19968;-75
2022/11/23 12:19:32;;;;;;;;;;;;;;;-144.99;100.00;52476.63;5067938;28;19950;-76
2022/11/23 12:22:19;;;;;;;;;;;;;;;-144.99;100.00;52492.94;5069711;28;19959;-75
2022/11/23 12:24:53;;;;;;;;;;;;;;;-144.99;100.00;52486.81;5055204;28;19982;-76
2022/11/23 12:27:24;;;;;;;;;;;;;;;-144.99;100.00;52488.84;5055040;28;19950;-75
2022/11/23 12:29:59;;;;;;;;;;;;;;;-144.99;100.00;52431.78;5056038;28;19950;-75
2022/11/23 12:32:32;;;;;;;;;;;;;;;-144.99;100.00;52509.25;5059314;28;20053;-75
2022/11/23 12:35:14;;;;;;;;;;;;;;;-144.99;100.00;52521.47;5061998;28;20009;-74
2022/11/23 12:37:46;;;;;;;;;;;;;;;-144.99;100.00;52497.00;5051594;28;20163;-74
2022/11/23 12:40:23;;;;;;;;;;;;;;;-144.99;100.00;52517.41;5062807;28;19969;-75
2022/11/23 12:42:57;;;;;;;;;;;;;;;-144.99;100.00;52517.41;5067127;28;19975;-76
2022/11/23 12:45:29;;;;;;;;;;;;;;;-144.99;100.00;52476.63;5067951;28;19942;-76
2022/11/23 12:48:00;;;;;;;;;;;;;;;-144.99;100.00;52513.31;5063850;28;19952;-75
2022/11/23 12:50:31;;;;;;;;;;;;;;;-144.99;100.00;52492.94;5059653;28;19937;-74
2022/11/23 12:53:00;;;;;;;;;;;;;;;-144.99;100.00;52488.84;5060939;28;19971;-74
2022/11/23 12:55:30;;;;;;;;;;;;;;;-144.99;100.00;52523.50;5048528;28;20425;-75
2022/11/23 12:58:01;;;;;;;;;;;;;;;-144.99;100.00;52513.31;5048708;28;20287;-74
2022/11/23 13:00:31;;;;;;;;;;;;;;;-144.99;100.00;52488.84;5058676;28;19945;-75